UPS1446 KRFD-KCLE
Flight info
| Callsign | UPS1446 |
|---|---|
| Flight time | 0h 50m |
| Altitude | 39000 |
| Route | FRYYE BRWNZ4 |
| Aircraft | B752/M-SDE2E3FGHIJ3J4J7RWXY/LB1 |
Departure
| Time | 2026-05-08 22:42 |
|---|---|
| Airport | Chicago Rockford International Airport (KRFD) |
Arrival
| Time | 2026-05-08 23:32 |
|---|---|
| Airport | Cleveland Hopkins International Airport (KCLE) |
| Time | Latitude | Longitude | Altitude | Speed | Heading |
|---|---|---|---|---|---|
| 2026-05-08 22:24 | 42.20020 | -89.10272 | 754 ft | 0 kts | 246° |
| 2026-05-08 22:36 | 42.20016 | -89.10284 | 754 ft | 4 kts | 248° |
| 2026-05-08 22:36 | 42.19992 | -89.10314 | 754 ft | 6 kts | 198° |
| 2026-05-08 22:36 | 42.19903 | -89.10291 | 754 ft | 23 kts | 156° |
| 2026-05-08 22:37 | 42.19774 | -89.10193 | 754 ft | 13 kts | 109° |
| 2026-05-08 22:37 | 42.19797 | -89.10076 | 754 ft | 13 kts | 65° |
| 2026-05-08 22:37 | 42.19836 | -89.09958 | 754 ft | 14 kts | 66° |
| 2026-05-08 22:37 | 42.19879 | -89.09831 | 754 ft | 15 kts | 65° |
| 2026-05-08 22:38 | 42.19925 | -89.09699 | 754 ft | 16 kts | 64° |
| 2026-05-08 22:38 | 42.19973 | -89.09560 | 754 ft | 16 kts | 66° |
| 2026-05-08 22:38 | 42.20021 | -89.09415 | 754 ft | 17 kts | 66° |
| 2026-05-08 22:38 | 42.20072 | -89.09261 | 754 ft | 17 kts | 65° |
| 2026-05-08 22:39 | 42.20128 | -89.09107 | 754 ft | 18 kts | 65° |
| 2026-05-08 22:39 | 42.20181 | -89.08944 | 754 ft | 19 kts | 67° |
| 2026-05-08 22:39 | 42.20241 | -89.08777 | 754 ft | 18 kts | 64° |
| 2026-05-08 22:39 | 42.20248 | -89.08720 | 754 ft | 1 kts | 126° |
| 2026-05-08 22:40 | 42.20240 | -89.08709 | 754 ft | 5 kts | 140° |
| 2026-05-08 22:40 | 42.20179 | -89.08664 | 754 ft | 9 kts | 171° |
| 2026-05-08 22:41 | 42.20142 | -89.08706 | 754 ft | 7 kts | 246° |
| 2026-05-08 22:41 | 42.20041 | -89.09008 | 754 ft | 71 kts | 245° |
| 2026-05-08 22:41 | 42.19733 | -89.09916 | 755 ft | 139 kts | 246° |
| 2026-05-08 22:41 | 42.19243 | -89.11329 | 958 ft | 187 kts | 246° |
| 2026-05-08 22:42 | 42.18715 | -89.12963 | 1924 ft | 197 kts | 246° |
| 2026-05-08 22:42 | 42.18160 | -89.14661 | 2899 ft | 203 kts | 246° |
| 2026-05-08 22:42 | 42.17635 | -89.16393 | 3678 ft | 208 kts | 256° |
| 2026-05-08 22:42 | 42.17688 | -89.18428 | 4118 ft | 233 kts | 290° |
| 2026-05-08 22:43 | 42.18663 | -89.20225 | 4730 ft | 252 kts | 321° |
| 2026-05-08 22:43 | 42.20310 | -89.21191 | 5329 ft | 273 kts | 350° |
| 2026-05-08 22:43 | 42.22228 | -89.21221 | 6261 ft | 278 kts | 8° |
| 2026-05-08 22:43 | 42.23991 | -89.20231 | 7139 ft | 286 kts | 36° |
| 2026-05-08 22:44 | 42.25281 | -89.18182 | 8034 ft | 294 kts | 62° |
| 2026-05-08 22:44 | 42.25777 | -89.15522 | 8851 ft | 301 kts | 89° |
| 2026-05-08 22:44 | 42.25368 | -89.12759 | 9614 ft | 309 kts | 114° |
| 2026-05-08 22:44 | 42.24641 | -89.10005 | 10357 ft | 314 kts | 99° |
| 2026-05-08 22:45 | 42.24489 | -89.07021 | 10697 ft | 334 kts | 88° |
| 2026-05-08 22:45 | 42.24471 | -89.03804 | 11135 ft | 351 kts | 89° |
| 2026-05-08 22:45 | 42.24421 | -89.00483 | 11835 ft | 358 kts | 89° |
| 2026-05-08 22:45 | 42.24369 | -88.97132 | 12525 ft | 364 kts | 89° |
| 2026-05-08 22:46 | 42.24311 | -88.93671 | 13283 ft | 369 kts | 89° |
| 2026-05-08 22:46 | 42.24251 | -88.90211 | 13940 ft | 377 kts | 89° |
| 2026-05-08 22:46 | 42.24188 | -88.86662 | 14697 ft | 381 kts | 89° |
| 2026-05-08 22:46 | 42.24122 | -88.83087 | 15389 ft | 387 kts | 89° |
| 2026-05-08 22:47 | 42.24054 | -88.79438 | 16117 ft | 392 kts | 89° |
| 2026-05-08 22:47 | 42.23984 | -88.75769 | 16806 ft | 397 kts | 89° |
| 2026-05-08 22:47 | 42.23912 | -88.72029 | 17500 ft | 403 kts | 89° |
| 2026-05-08 22:47 | 42.23837 | -88.68243 | 18196 ft | 409 kts | 90° |
| 2026-05-08 22:48 | 42.23760 | -88.64394 | 18897 ft | 414 kts | 89° |
| 2026-05-08 22:48 | 42.23680 | -88.60484 | 19631 ft | 419 kts | 90° |
| 2026-05-08 22:48 | 42.23599 | -88.56574 | 20263 ft | 425 kts | 90° |
| 2026-05-08 22:48 | 42.23515 | -88.52569 | 20893 ft | 431 kts | 90° |
| 2026-05-08 22:49 | 42.23428 | -88.48519 | 21582 ft | 435 kts | 90° |
| 2026-05-08 22:49 | 42.23248 | -88.40307 | 22770 ft | 446 kts | 90° |
| 2026-05-08 22:49 | 42.23154 | -88.36141 | 23372 ft | 450 kts | 91° |
| 2026-05-08 22:50 | 42.23057 | -88.31918 | 23941 ft | 455 kts | 91° |
| 2026-05-08 22:50 | 42.22958 | -88.27628 | 24462 ft | 461 kts | 91° |
| 2026-05-08 22:50 | 42.22857 | -88.23309 | 25021 ft | 466 kts | 92° |
| 2026-05-08 22:50 | 42.22750 | -88.18917 | 25602 ft | 470 kts | 92° |
| 2026-05-08 22:51 | 42.22643 | -88.14539 | 26088 ft | 476 kts | 92° |
| 2026-05-08 22:51 | 42.22532 | -88.10029 | 26540 ft | 482 kts | 92° |
| 2026-05-08 22:51 | 42.22418 | -88.05514 | 27085 ft | 485 kts | 93° |
| 2026-05-08 22:51 | 42.22301 | -88.00928 | 27557 ft | 490 kts | 92° |
| 2026-05-08 22:52 | 42.22179 | -87.96262 | 28037 ft | 495 kts | 92° |
| 2026-05-08 22:52 | 42.22057 | -87.91596 | 28446 ft | 501 kts | 93° |
| 2026-05-08 22:52 | 42.21932 | -87.86930 | 28921 ft | 504 kts | 93° |
| 2026-05-08 22:52 | 42.21803 | -87.82189 | 29286 ft | 511 kts | 93° |
| 2026-05-08 22:53 | 42.21671 | -87.77392 | 29837 ft | 512 kts | 94° |
| 2026-05-08 22:53 | 42.21534 | -87.72535 | 30191 ft | 518 kts | 94° |
| 2026-05-08 22:53 | 42.21395 | -87.67632 | 30399 ft | 528 kts | 93° |
| 2026-05-08 22:53 | 42.21251 | -87.62693 | 30435 ft | 541 kts | 93° |
| 2026-05-08 22:54 | 42.21099 | -87.57517 | 30458 ft | 553 kts | 93° |
| 2026-05-08 22:54 | 42.20945 | -87.52345 | 30479 ft | 565 kts | 93° |
| 2026-05-08 22:54 | 42.20783 | -87.46973 | 30724 ft | 570 kts | 93° |
| 2026-05-08 22:54 | 42.20622 | -87.41693 | 31278 ft | 569 kts | 93° |
| 2026-05-08 22:55 | 42.20456 | -87.36382 | 31766 ft | 569 kts | 93° |
| 2026-05-08 22:55 | 42.20289 | -87.31061 | 32225 ft | 569 kts | 94° |
| 2026-05-08 22:55 | 42.20121 | -87.25792 | 32749 ft | 567 kts | 94° |
| 2026-05-08 22:55 | 42.19947 | -87.20497 | 33111 ft | 568 kts | 94° |
| 2026-05-08 22:56 | 42.19772 | -87.15157 | 33548 ft | 567 kts | 94° |
| 2026-05-08 22:56 | 42.19596 | -87.09873 | 34026 ft | 565 kts | 94° |
| 2026-05-08 22:56 | 42.19417 | -87.04617 | 34346 ft | 566 kts | 94° |
| 2026-05-08 22:56 | 42.19235 | -86.99308 | 34673 ft | 566 kts | 94° |
| 2026-05-08 22:57 | 42.19050 | -86.94024 | 35032 ft | 563 kts | 94° |
| 2026-05-08 22:57 | 42.18868 | -86.88854 | 35382 ft | 560 kts | 94° |
| 2026-05-08 22:57 | 42.18682 | -86.83627 | 35737 ft | 556 kts | 93° |
| 2026-05-08 22:57 | 42.18496 | -86.78454 | 36089 ft | 553 kts | 93° |
| 2026-05-08 22:58 | 42.18306 | -86.73266 | 36315 ft | 553 kts | 94° |
| 2026-05-08 22:58 | 42.18114 | -86.68120 | 36640 ft | 549 kts | 93° |
| 2026-05-08 22:58 | 42.17925 | -86.63043 | 36896 ft | 548 kts | 93° |
| 2026-05-08 22:58 | 42.17730 | -86.57916 | 37190 ft | 546 kts | 94° |
| 2026-05-08 22:59 | 42.17533 | -86.52794 | 37441 ft | 545 kts | 93° |
| 2026-05-08 22:59 | 42.17336 | -86.47729 | 37711 ft | 543 kts | 94° |
| 2026-05-08 22:59 | 42.17137 | -86.42675 | 37947 ft | 542 kts | 93° |
| 2026-05-08 22:59 | 42.16936 | -86.37600 | 38133 ft | 543 kts | 93° |
| 2026-05-08 23:00 | 42.16733 | -86.32571 | 38367 ft | 541 kts | 94° |
| 2026-05-08 23:00 | 42.16530 | -86.27546 | 38624 ft | 539 kts | 94° |
| 2026-05-08 23:00 | 42.16322 | -86.22478 | 38795 ft | 536 kts | 94° |
| 2026-05-08 23:00 | 42.16119 | -86.17615 | 38816 ft | 520 kts | 94° |
| 2026-05-08 23:01 | 42.15917 | -86.12802 | 38824 ft | 501 kts | 94° |
| 2026-05-08 23:01 | 42.15720 | -86.08190 | 38839 ft | 501 kts | 94° |
| 2026-05-08 23:01 | 42.15317 | -85.98765 | 38828 ft | 509 kts | 95° |
| 2026-05-08 23:02 | 42.15109 | -85.93989 | 38241 ft | 520 kts | 94° |
| 2026-05-08 23:02 | 42.14889 | -85.89030 | 37128 ft | 541 kts | 94° |
| 2026-05-08 23:02 | 42.14664 | -85.83948 | 36292 ft | 549 kts | 94° |
| 2026-05-08 23:02 | 42.14434 | -85.78874 | 35743 ft | 550 kts | 94° |
| 2026-05-08 23:03 | 42.14199 | -85.73681 | 34947 ft | 557 kts | 94° |
| 2026-05-08 23:03 | 42.13962 | -85.68514 | 34185 ft | 560 kts | 94° |
| 2026-05-08 23:03 | 42.13724 | -85.63335 | 33464 ft | 558 kts | 94° |
| 2026-05-08 23:03 | 42.13479 | -85.58134 | 32848 ft | 550 kts | 94° |
| 2026-05-08 23:04 | 42.13243 | -85.53105 | 32847 ft | 539 kts | 94° |
| 2026-05-08 23:04 | 42.13001 | -85.48018 | 32851 ft | 548 kts | 94° |
| 2026-05-08 23:04 | 42.12502 | -85.37652 | 32852 ft | 563 kts | 94° |
| 2026-05-08 23:05 | 42.11986 | -85.27165 | 32833 ft | 562 kts | 95° |
| 2026-05-08 23:05 | 42.11461 | -85.16692 | 32834 ft | 563 kts | 95° |
| 2026-05-08 23:06 | 42.10923 | -85.06145 | 32836 ft | 563 kts | 95° |
| 2026-05-08 23:06 | 42.10377 | -84.95626 | 32839 ft | 564 kts | 95° |
| 2026-05-08 23:07 | 42.09821 | -84.85107 | 32837 ft | 563 kts | 95° |
| 2026-05-08 23:07 | 42.09256 | -84.74600 | 32841 ft | 564 kts | 95° |
| 2026-05-08 23:08 | 42.08680 | -84.64079 | 32846 ft | 564 kts | 95° |
| 2026-05-08 23:08 | 42.08095 | -84.53550 | 32850 ft | 564 kts | 95° |
| 2026-05-08 23:09 | 42.07497 | -84.43003 | 32854 ft | 565 kts | 95° |
| 2026-05-08 23:09 | 42.06898 | -84.32544 | 32837 ft | 565 kts | 95° |
| 2026-05-08 23:10 | 42.06280 | -84.21982 | 32834 ft | 564 kts | 95° |
| 2026-05-08 23:10 | 42.05653 | -84.11430 | 32830 ft | 566 kts | 95° |
| 2026-05-08 23:11 | 42.05022 | -84.00956 | 32538 ft | 569 kts | 95° |
| 2026-05-08 23:11 | 42.04698 | -83.95635 | 32162 ft | 570 kts | 95° |
| 2026-05-08 23:11 | 42.04372 | -83.90348 | 31440 ft | 572 kts | 95° |
| 2026-05-08 23:12 | 42.04043 | -83.85017 | 30687 ft | 570 kts | 95° |
| 2026-05-08 23:12 | 42.03712 | -83.79710 | 29914 ft | 568 kts | 96° |
| 2026-05-08 23:12 | 42.03381 | -83.74485 | 29374 ft | 560 kts | 95° |
| 2026-05-08 23:12 | 42.03054 | -83.69334 | 28992 ft | 543 kts | 96° |
| 2026-05-08 23:13 | 42.02716 | -83.64336 | 28192 ft | 535 kts | 96° |
| 2026-05-08 23:13 | 42.02385 | -83.59414 | 27442 ft | 532 kts | 95° |
| 2026-05-08 23:13 | 42.02054 | -83.54501 | 26734 ft | 528 kts | 96° |
| 2026-05-08 23:13 | 42.01722 | -83.49599 | 26017 ft | 524 kts | 96° |
| 2026-05-08 23:14 | 42.01390 | -83.44733 | 25311 ft | 519 kts | 96° |
| 2026-05-08 23:14 | 42.01060 | -83.39941 | 24643 ft | 514 kts | 96° |
| 2026-05-08 23:14 | 42.00734 | -83.35214 | 23968 ft | 509 kts | 96° |
| 2026-05-08 23:14 | 42.00414 | -83.30572 | 23838 ft | 488 kts | 96° |
| 2026-05-08 23:15 | 42.00104 | -83.26135 | 23835 ft | 474 kts | 97° |
| 2026-05-08 23:15 | 41.99786 | -83.21632 | 23879 ft | 490 kts | 96° |
| 2026-05-08 23:15 | 41.99465 | -83.17071 | 23267 ft | 502 kts | 96° |
| 2026-05-08 23:15 | 41.99133 | -83.12396 | 22477 ft | 497 kts | 96° |
| 2026-05-08 23:16 | 41.98799 | -83.07857 | 21916 ft | 479 kts | 97° |
| 2026-05-08 23:16 | 41.98459 | -83.03494 | 20905 ft | 463 kts | 97° |
| 2026-05-08 23:16 | 41.98125 | -82.99257 | 19704 ft | 453 kts | 97° |
| 2026-05-08 23:16 | 41.97802 | -82.95139 | 18932 ft | 439 kts | 96° |
| 2026-05-08 23:17 | 41.97487 | -82.91100 | 18674 ft | 427 kts | 96° |
| 2026-05-08 23:17 | 41.97176 | -82.87122 | 18072 ft | 425 kts | 96° |
| 2026-05-08 23:17 | 41.96867 | -82.83222 | 17515 ft | 422 kts | 97° |
| 2026-05-08 23:17 | 41.96555 | -82.79362 | 17105 ft | 415 kts | 98° |
| 2026-05-08 23:18 | 41.95983 | -82.75610 | 16682 ft | 407 kts | 107° |
| 2026-05-08 23:18 | 41.95258 | -82.71920 | 16138 ft | 404 kts | 106° |
| 2026-05-08 23:18 | 41.94555 | -82.68321 | 15592 ft | 402 kts | 106° |
| 2026-05-08 23:18 | 41.93846 | -82.64723 | 15053 ft | 399 kts | 107° |
| 2026-05-08 23:19 | 41.93137 | -82.61140 | 14434 ft | 399 kts | 106° |
| 2026-05-08 23:19 | 41.92417 | -82.57517 | 13910 ft | 395 kts | 106° |
| 2026-05-08 23:19 | 41.91716 | -82.53966 | 13271 ft | 395 kts | 106° |
| 2026-05-08 23:19 | 41.91022 | -82.50457 | 12701 ft | 392 kts | 106° |
| 2026-05-08 23:20 | 41.90340 | -82.47004 | 12616 ft | 375 kts | 106° |
| 2026-05-08 23:20 | 41.89669 | -82.43620 | 12133 ft | 372 kts | 106° |
| 2026-05-08 23:20 | 41.89011 | -82.40301 | 11691 ft | 368 kts | 106° |
| 2026-05-08 23:20 | 41.88363 | -82.37013 | 11176 ft | 367 kts | 105° |
| 2026-05-08 23:21 | 41.87713 | -82.33717 | 10765 ft | 362 kts | 106° |
| 2026-05-08 23:21 | 41.87080 | -82.30512 | 10566 ft | 349 kts | 107° |
| 2026-05-08 23:21 | 41.86470 | -82.27433 | 10553 ft | 333 kts | 107° |
| 2026-05-08 23:21 | 41.85891 | -82.24507 | 10527 ft | 318 kts | 107° |
| 2026-05-08 23:22 | 41.85278 | -82.21677 | 10227 ft | 313 kts | 115° |
| 2026-05-08 23:22 | 41.84246 | -82.19135 | 9847 ft | 309 kts | 125° |
| 2026-05-08 23:22 | 41.83142 | -82.16682 | 9547 ft | 306 kts | 124° |
| 2026-05-08 23:22 | 41.82068 | -82.14293 | 9254 ft | 297 kts | 125° |
| 2026-05-08 23:23 | 41.80992 | -82.11925 | 8991 ft | 298 kts | 125° |
| 2026-05-08 23:23 | 41.79892 | -82.09521 | 8725 ft | 302 kts | 124° |
| 2026-05-08 23:23 | 41.78810 | -82.07149 | 8467 ft | 299 kts | 124° |
| 2026-05-08 23:23 | 41.77721 | -82.04770 | 8226 ft | 296 kts | 124° |
| 2026-05-08 23:24 | 41.76652 | -82.02434 | 7991 ft | 294 kts | 124° |
| 2026-05-08 23:24 | 41.75574 | -82.00085 | 7761 ft | 294 kts | 124° |
| 2026-05-08 23:24 | 41.74513 | -81.97774 | 7523 ft | 294 kts | 124° |
| 2026-05-08 23:24 | 41.73421 | -81.95400 | 6972 ft | 300 kts | 124° |
| 2026-05-08 23:25 | 41.72339 | -81.93040 | 6652 ft | 297 kts | 124° |
| 2026-05-08 23:25 | 41.71249 | -81.90697 | 6259 ft | 297 kts | 125° |
| 2026-05-08 23:25 | 41.70142 | -81.88380 | 5969 ft | 293 kts | 124° |
| 2026-05-08 23:25 | 41.69065 | -81.86124 | 5618 ft | 291 kts | 124° |
| 2026-05-08 23:26 | 41.67989 | -81.83820 | 5287 ft | 289 kts | 124° |
| 2026-05-08 23:26 | 41.66942 | -81.81561 | 4997 ft | 284 kts | 124° |
| 2026-05-08 23:26 | 41.65914 | -81.79353 | 4979 ft | 273 kts | 124° |
| 2026-05-08 23:26 | 41.64869 | -81.77163 | 5002 ft | 287 kts | 125° |
| 2026-05-08 23:27 | 41.63786 | -81.74883 | 4985 ft | 287 kts | 125° |
| 2026-05-08 23:27 | 41.62497 | -81.72881 | 4779 ft | 285 kts | 147° |
| 2026-05-08 23:27 | 41.60760 | -81.71813 | 4490 ft | 273 kts | 170° |
| 2026-05-08 23:27 | 41.58908 | -81.71250 | 4124 ft | 270 kts | 171° |
| 2026-05-08 23:28 | 41.57114 | -81.70708 | 3980 ft | 260 kts | 171° |
| 2026-05-08 23:28 | 41.55339 | -81.70195 | 3996 ft | 266 kts | 172° |
| 2026-05-08 23:28 | 41.53494 | -81.70074 | 4000 ft | 261 kts | 195° |
| 2026-05-08 23:28 | 41.51877 | -81.70953 | 3930 ft | 240 kts | 213° |
| 2026-05-08 23:29 | 41.50468 | -81.71983 | 3743 ft | 229 kts | 211° |
| 2026-05-08 23:29 | 41.49091 | -81.73092 | 3088 ft | 227 kts | 227° |
| 2026-05-08 23:29 | 41.48127 | -81.74570 | 2836 ft | 204 kts | 231° |
| 2026-05-08 23:29 | 41.47239 | -81.75940 | 2550 ft | 188 kts | 231° |
| 2026-05-08 23:30 | 41.46411 | -81.77230 | 2282 ft | 176 kts | 231° |
| 2026-05-08 23:30 | 41.45649 | -81.78429 | 2054 ft | 162 kts | 231° |
| 2026-05-08 23:30 | 41.44946 | -81.79538 | 1841 ft | 148 kts | 231° |
| 2026-05-08 23:30 | 41.44324 | -81.80521 | 1641 ft | 134 kts | 231° |
| 2026-05-08 23:31 | 41.43758 | -81.81415 | 1449 ft | 121 kts | 231° |
| 2026-05-08 23:31 | 41.43211 | -81.82288 | 1310 ft | 125 kts | 231° |
| 2026-05-08 23:31 | 41.42645 | -81.83193 | 1160 ft | 127 kts | 232° |
| 2026-05-08 23:31 | 41.42066 | -81.84097 | 1003 ft | 129 kts | 229° |
| 2026-05-08 23:32 | 41.41482 | -81.84990 | 817 ft | 126 kts | 230° |
| 2026-05-08 23:32 | 41.40940 | -81.85854 | 775 ft | 109 kts | 234° |
| 2026-05-08 23:32 | 41.40579 | -81.86414 | 766 ft | 62 kts | 229° |
| 2026-05-08 23:32 | 41.40371 | -81.86652 | 755 ft | 25 kts | 195° |
| 2026-05-08 23:33 | 41.40318 | -81.86652 | 756 ft | 4 kts | 164° |
| 2026-05-08 23:33 | 41.40297 | -81.86583 | 759 ft | 13 kts | 63° |
| 2026-05-08 23:33 | 41.40345 | -81.86520 | 761 ft | 7 kts | 50° |
| 2026-05-08 23:33 | 41.40411 | -81.86429 | 765 ft | 17 kts | 45° |
| 2026-05-08 23:34 | 41.40490 | -81.86320 | 769 ft | 15 kts | 48° |
| 2026-05-08 23:34 | 41.40558 | -81.86217 | 773 ft | 14 kts | 49° |
| 2026-05-08 23:34 | 41.40637 | -81.86097 | 775 ft | 22 kts | 49° |
| 2026-05-08 23:34 | 41.40761 | -81.85901 | 776 ft | 29 kts | 49° |
| 2026-05-08 23:35 | 41.40894 | -81.85689 | 778 ft | 29 kts | 49° |
| 2026-05-08 23:35 | 41.41027 | -81.85476 | 779 ft | 30 kts | 50° |
| 2026-05-08 23:35 | 41.41165 | -81.85262 | 783 ft | 30 kts | 49° |
| 2026-05-08 23:35 | 41.41257 | -81.85191 | 783 ft | 14 kts | 351° |
| 2026-05-08 23:36 | 41.41347 | -81.85270 | 779 ft | 17 kts | 319° |
| 2026-05-08 23:36 | 41.41391 | -81.85366 | 776 ft | 9 kts | 258° |
| 2026-05-08 23:36 | 41.41390 | -81.85441 | 775 ft | 3 kts | 294° |
| 2026-05-08 23:36 | 41.41439 | -81.85508 | 773 ft | 12 kts | 309° |
| 2026-05-08 23:37 | 41.41431 | -81.85587 | 770 ft | 8 kts | 229° |
| 2026-05-08 23:37 | 41.41424 | -81.85597 | 769 ft | 0 kts | 229° |